createdAt,value
2022-11-24T00:01:06.419Z,12.93
2022-11-24T00:03:33.616Z,12.82
2022-11-24T00:06:11.177Z,12.52
2022-11-24T00:08:39.079Z,13.15
2022-11-24T00:11:10.338Z,12.00
2022-11-24T00:13:39.342Z,12.55
2022-11-24T00:16:08.178Z,13.88
2022-11-24T00:18:35.261Z,13.60
2022-11-24T00:21:02.256Z,12.85
2022-11-24T00:23:29.239Z,13.48
2022-11-24T00:25:56.227Z,12.83
2022-11-24T00:28:23.238Z,12.32
2022-11-24T00:30:50.337Z,13.02
2022-11-24T00:33:17.357Z,12.70
2022-11-24T00:35:44.397Z,13.60
2022-11-24T00:38:11.345Z,13.63
2022-11-24T00:40:38.366Z,13.27
2022-11-24T00:43:05.374Z,13.35
2022-11-24T00:45:32.427Z,14.52
2022-11-24T00:47:59.376Z,12.30
2022-11-24T00:50:26.384Z,13.10
2022-11-24T00:52:53.422Z,13.05
2022-11-24T00:55:20.478Z,13.52
2022-11-24T00:57:47.442Z,13.38
2022-11-24T01:00:14.958Z,14.55
2022-11-24T01:02:42.061Z,13.55
2022-11-24T01:05:09.249Z,13.07
2022-11-24T01:07:36.308Z,14.68
2022-11-24T01:10:03.357Z,13.75
2022-11-24T01:12:30.345Z,13.75
2022-11-24T01:14:57.261Z,13.88
2022-11-24T01:17:24.261Z,14.93
2022-11-24T01:19:51.617Z,15.02
2022-11-24T01:22:18.640Z,15.20
2022-11-24T01:24:46.016Z,15.10
2022-11-24T01:27:12.938Z,14.70
2022-11-24T01:29:39.907Z,14.95
2022-11-24T01:32:06.879Z,15.00
2022-11-24T01:34:34.049Z,15.93
2022-11-24T01:37:01.140Z,14.20
2022-11-24T01:39:28.120Z,13.73
2022-11-24T01:41:55.218Z,14.68
2022-11-24T01:44:26.863Z,15.68
2022-11-24T01:46:58.304Z,14.73
2022-11-24T01:49:36.144Z,15.88
2022-11-24T01:52:30.139Z,15.47
2022-11-24T01:54:58.905Z,14.05
2022-11-24T01:57:28.001Z,14.63
2022-11-24T01:59:57.488Z,15.10
2022-11-24T02:02:25.245Z,13.98
2022-11-24T02:04:52.306Z,15.73
2022-11-24T02:07:19.387Z,16.90
2022-11-24T02:10:01.179Z,14.77
2022-11-24T02:12:28.196Z,14.43
2022-11-24T02:14:55.867Z,14.95
2022-11-24T02:17:22.820Z,14.87
2022-11-24T02:19:53.856Z,15.32
2022-11-24T02:22:46.766Z,13.95
2022-11-24T02:25:36.183Z,14.90
2022-11-24T02:28:05.702Z,14.23
2022-11-24T02:30:32.696Z,14.23
2022-11-24T02:32:59.682Z,14.80
2022-11-24T02:35:27.657Z,14.23
2022-11-24T02:37:54.598Z,14.70
2022-11-24T02:40:25.938Z,14.80
2022-11-24T02:43:08.159Z,13.67
2022-11-24T02:45:35.177Z,14.32
2022-11-24T02:48:02.138Z,15.15
2022-11-24T02:50:29.135Z,14.30
2022-11-24T02:52:56.076Z,14.77
2022-11-24T02:55:23.863Z,13.93
2022-11-24T02:57:50.848Z,14.27
2022-11-24T03:00:18.504Z,14.07
2022-11-24T03:02:45.567Z,14.05
2022-11-24T03:05:12.741Z,14.30
2022-11-24T03:07:39.819Z,14.47
2022-11-24T03:10:07.057Z,15.57
2022-11-24T03:12:34.396Z,13.88
2022-11-24T03:15:02.578Z,13.98
2022-11-24T03:17:29.674Z,12.70
2022-11-24T03:20:01.455Z,14.93
2022-11-24T03:22:31.175Z,13.43
2022-11-24T03:24:58.240Z,13.27
2022-11-24T03:27:25.299Z,14.25
2022-11-24T03:29:52.272Z,13.52
2022-11-24T03:32:19.249Z,12.82
2022-11-24T03:34:46.175Z,13.18
2022-11-24T03:37:13.267Z,14.30
2022-11-24T03:39:40.243Z,13.68
2022-11-24T03:42:07.256Z,13.73
2022-11-24T03:44:34.516Z,13.20
2022-11-24T03:47:01.740Z,13.95
2022-11-24T03:49:28.716Z,14.20
2022-11-24T03:51:55.706Z,13.70
2022-11-24T03:54:22.665Z,14.20
2022-11-24T03:56:49.720Z,12.77
2022-11-24T03:59:17.202Z,13.15
2022-11-24T04:01:44.232Z,13.07
2022-11-24T04:04:12.076Z,12.77
2022-11-24T04:06:39.361Z,13.90
2022-11-24T04:09:06.414Z,12.47
2022-11-24T04:11:51.736Z,12.82
2022-11-24T04:14:19.656Z,13.45
2022-11-24T04:16:46.818Z,13.90
2022-11-24T04:19:13.784Z,13.73
2022-11-24T04:21:40.821Z,14.55
2022-11-24T04:24:07.879Z,13.50
2022-11-24T04:26:34.897Z,13.25
2022-11-24T04:29:01.842Z,13.90
2022-11-24T04:31:28.839Z,13.75
2022-11-24T04:33:55.843Z,13.93
2022-11-24T04:36:22.859Z,13.95
2022-11-24T04:39:25.613Z,15.38
2022-11-24T04:41:36.719Z,12.77
2022-11-24T04:44:03.707Z,14.25
2022-11-24T04:46:30.816Z,13.95
2022-11-24T04:48:57.821Z,13.13
2022-11-24T04:51:24.734Z,13.85
2022-11-24T04:53:51.698Z,13.52
2022-11-24T04:56:18.616Z,13.40
2022-11-24T04:58:48.960Z,12.57
2022-11-24T05:01:15.999Z,12.02
2022-11-24T05:03:43.079Z,12.95
2022-11-24T05:06:10.082Z,13.10
2022-11-24T05:08:37.054Z,12.48
2022-11-24T05:11:07.428Z,12.70
2022-11-24T05:13:34.567Z,12.43
2022-11-24T05:16:01.940Z,13.60
2022-11-24T05:18:29.145Z,12.20
2022-11-24T05:20:56.281Z,11.88
2022-11-24T05:23:23.234Z,12.33
2022-11-24T05:25:50.252Z,12.90
2022-11-24T05:28:17.484Z,12.00
2022-11-24T05:30:44.520Z,11.60
2022-11-24T05:33:24.890Z,12.05
2022-11-24T05:35:51.911Z,12.47
2022-11-24T05:38:18.902Z,10.88
2022-11-24T05:40:45.934Z,11.90
2022-11-24T05:43:13.331Z,11.18
2022-11-24T05:45:40.377Z,12.15
2022-11-24T05:48:08.974Z,12.23
2022-11-24T05:50:36.100Z,12.20
2022-11-24T05:53:07.654Z,11.88
2022-11-24T05:55:35.055Z,12.07
2022-11-24T05:58:03.434Z,11.27
2022-11-24T06:00:30.726Z,11.52
2022-11-24T06:02:58.147Z,11.27
2022-11-24T06:05:25.783Z,11.52
2022-11-24T06:07:52.753Z,11.73
2022-11-24T06:10:20.224Z,10.73
2022-11-24T06:12:47.319Z,11.13
2022-11-24T06:15:14.348Z,10.82
2022-11-24T06:17:41.183Z,11.63
2022-11-24T06:20:08.608Z,11.10
2022-11-24T06:22:35.516Z,10.77
2022-11-24T06:25:02.349Z,10.63
2022-11-24T06:27:29.246Z,10.00
2022-11-24T06:29:56.099Z,11.20
2022-11-24T06:32:24.288Z,11.05
2022-11-24T06:34:51.148Z,11.07
2022-11-24T06:37:18.064Z,11.20
2022-11-24T06:39:44.913Z,11.13
2022-11-24T06:42:11.831Z,11.32
2022-11-24T06:44:38.708Z,10.85
2022-11-24T06:47:05.713Z,11.07
2022-11-24T06:49:32.561Z,11.73
2022-11-24T06:51:59.443Z,11.48
2022-11-24T06:54:26.396Z,11.82
2022-11-24T06:56:57.561Z,12.10
2022-11-24T06:59:24.611Z,12.93
2022-11-24T07:01:51.462Z,11.32
2022-11-24T07:04:18.527Z,11.77
2022-11-24T07:06:45.408Z,11.30
2022-11-24T07:09:13.032Z,12.32
2022-11-24T07:11:40.243Z,11.82
2022-11-24T07:14:07.210Z,11.93
2022-11-24T07:16:34.278Z,12.05
2022-11-24T07:19:01.209Z,11.95
2022-11-24T07:21:28.329Z,12.23
2022-11-24T07:23:56.392Z,12.73
2022-11-24T07:26:23.527Z,12.13
2022-11-24T07:28:50.939Z,12.10
2022-11-24T07:31:19.771Z,12.35
2022-11-24T07:33:50.047Z,12.48
2022-11-24T07:36:17.116Z,13.50
2022-11-24T07:38:44.007Z,13.30
2022-11-24T07:41:11.648Z,13.05
2022-11-24T07:43:38.721Z,12.68
2022-11-24T07:46:06.791Z,12.30
2022-11-24T07:48:34.318Z,12.43
2022-11-24T07:51:04.709Z,12.47
2022-11-24T07:53:32.371Z,12.70
2022-11-24T07:56:00.569Z,12.80
2022-11-24T07:58:33.109Z,13.13
2022-11-24T08:01:00.647Z,13.32
2022-11-24T08:03:27.916Z,12.50
2022-11-24T08:06:22.456Z,13.48
2022-11-24T08:08:42.959Z,13.00
2022-11-24T08:11:14.243Z,13.57
2022-11-24T08:13:41.122Z,12.55
2022-11-24T08:16:09.859Z,12.83
2022-11-24T08:18:36.902Z,13.07
2022-11-24T08:21:03.989Z,13.77
2022-11-24T08:23:31.108Z,12.88
2022-11-24T08:26:03.142Z,12.73
2022-11-24T08:28:30.005Z,13.87
2022-11-24T08:31:07.730Z,12.93
2022-11-24T08:33:34.630Z,12.13
2022-11-24T08:36:08.947Z,13.80
2022-11-24T08:38:35.844Z,12.85
2022-11-24T08:41:07.487Z,12.83
2022-11-24T08:43:34.437Z,12.75
2022-11-24T08:46:02.247Z,13.60
2022-11-24T08:48:29.394Z,13.15
2022-11-24T08:50:57.064Z,12.13
2022-11-24T08:53:24.161Z,12.30
2022-11-24T08:55:51.161Z,12.10
2022-11-24T08:58:18.063Z,13.38
2022-11-24T09:00:44.956Z,13.45
2022-11-24T09:03:12.047Z,13.43
2022-11-24T09:05:54.464Z,13.43
2022-11-24T09:08:21.365Z,13.50
2022-11-24T09:10:48.387Z,13.63
2022-11-24T09:13:15.367Z,13.38
2022-11-24T09:15:42.257Z,13.68
2022-11-24T09:18:09.168Z,13.40
2022-11-24T09:20:36.267Z,13.98
2022-11-24T09:23:03.174Z,14.32
2022-11-24T09:25:30.012Z,13.10
2022-11-24T09:27:57.499Z,12.30
2022-11-24T09:30:24.497Z,13.83
2022-11-24T09:32:51.412Z,13.90
2022-11-24T09:35:18.244Z,13.90
2022-11-24T09:37:45.910Z,14.35
2022-11-24T09:40:14.357Z,14.45
2022-11-24T09:43:11.579Z,14.60
2022-11-24T09:46:12.008Z,13.85
2022-11-24T09:48:40.948Z,12.75
2022-11-24T09:51:12.305Z,13.30
2022-11-24T09:54:00.799Z,12.95
2022-11-24T09:56:32.789Z,13.30
2022-11-24T09:59:07.198Z,13.75
2022-11-24T10:01:37.919Z,14.45
2022-11-24T10:04:06.893Z,15.48
2022-11-24T10:07:00.911Z,13.23
2022-11-24T10:09:49.006Z,14.07
2022-11-24T10:12:53.389Z,14.85
2022-11-24T10:15:42.517Z,14.90
2022-11-24T10:18:24.586Z,13.60
2022-11-24T10:21:28.785Z,14.30
2022-11-24T10:24:12.916Z,13.63
2022-11-24T10:26:41.083Z,14.63
2022-11-24T10:29:27.024Z,14.40
2022-11-24T10:31:55.247Z,13.95
2022-11-24T10:34:51.351Z,14.20
2022-11-24T10:37:30.789Z,13.40
2022-11-24T10:40:59.585Z,13.38
2022-11-24T10:43:28.504Z,13.82
2022-11-24T10:45:59.712Z,14.98
2022-11-24T10:48:27.825Z,15.73
2022-11-24T10:51:26.527Z,16.63
2022-11-24T10:53:53.645Z,17.90
2022-11-24T10:56:20.484Z,16.88
2022-11-24T10:58:47.395Z,17.20
2022-11-24T11:01:14.363Z,17.25
2022-11-24T11:03:55.521Z,17.80
2022-11-24T11:06:26.146Z,16.50
2022-11-24T11:09:14.765Z,17.00
2022-11-24T11:11:43.085Z,16.90
2022-11-24T11:14:11.033Z,16.38
2022-11-24T11:16:52.303Z,17.40
2022-11-24T11:19:49.046Z,16.52
2022-11-24T11:22:30.428Z,16.23
2022-11-24T11:25:15.757Z,15.60
2022-11-24T11:27:42.722Z,16.20
2022-11-24T11:36:23.265Z,14.93
2022-11-24T11:38:50.133Z,15.73
2022-11-24T11:41:22.244Z,16.52
2022-11-24T11:43:51.482Z,15.57
2022-11-24T11:46:18.519Z,15.57
2022-11-24T11:48:47.079Z,15.05
2022-11-24T11:51:33.012Z,16.60
2022-11-24T11:54:26.188Z,14.70
2022-11-24T11:57:11.770Z,14.87
2022-11-24T12:00:18.349Z,15.05
2022-11-24T12:03:15.643Z,14.75
2022-11-24T12:06:04.199Z,15.32
2022-11-24T12:12:17.231Z,15.57
2022-11-24T12:15:25.226Z,14.50
2022-11-24T12:17:55.676Z,15.38
2022-11-24T12:20:51.737Z,15.73
2022-11-24T12:23:36.825Z,14.45
2022-11-24T12:26:24.834Z,15.27
2022-11-24T12:29:00.426Z,15.07
2022-11-24T12:31:39.485Z,16.15
2022-11-24T12:34:30.045Z,15.63
2022-11-24T12:37:19.841Z,16.02
2022-11-24T12:39:55.811Z,15.17
2022-11-24T12:43:13.541Z,15.05
2022-11-24T12:45:59.338Z,15.68
2022-11-24T12:48:35.725Z,14.75
2022-11-24T12:51:04.109Z,13.85
2022-11-24T12:53:34.423Z,14.33
2022-11-24T12:56:14.809Z,15.48
2022-11-24T12:58:41.665Z,15.00
2022-11-24T13:01:16.118Z,16.05
2022-11-24T13:04:05.430Z,15.00
2022-11-24T13:06:37.980Z,15.63
2022-11-24T13:09:09.532Z,14.75
2022-11-24T13:11:47.291Z,15.45
2022-11-24T13:14:22.439Z,14.25
2022-11-24T13:17:21.153Z,15.50
2022-11-24T13:19:37.080Z,13.90
2022-11-24T13:22:07.897Z,15.25
2022-11-24T13:24:36.918Z,14.95
2022-11-24T13:27:27.780Z,14.77
2022-11-24T13:29:54.730Z,14.25
2022-11-24T13:32:21.562Z,14.23
2022-11-24T13:34:55.114Z,15.15
2022-11-24T13:37:34.985Z,14.27
2022-11-24T13:40:17.150Z,14.95
2022-11-24T13:43:00.434Z,14.38
2022-11-24T13:45:40.459Z,13.60
2022-11-24T13:48:19.868Z,16.08
2022-11-24T13:50:49.629Z,15.10
2022-11-24T13:53:47.683Z,15.60
2022-11-24T13:56:17.316Z,14.95
2022-11-24T13:58:44.461Z,14.73
2022-11-24T14:01:26.872Z,15.05
2022-11-24T14:04:30.505Z,15.30
2022-11-24T14:07:07.050Z,14.50
2022-11-24T14:09:53.122Z,14.55
2022-11-24T14:12:21.352Z,14.03
2022-11-24T14:14:52.293Z,15.80
2022-11-24T14:17:23.696Z,15.32
2022-11-24T14:19:52.360Z,14.75
2022-11-24T14:22:40.291Z,15.60
2022-11-24T14:25:08.802Z,15.65
2022-11-24T14:27:37.954Z,15.35
2022-11-24T14:30:17.606Z,15.20
2022-11-24T14:33:03.473Z,13.75
2022-11-24T14:35:31.867Z,13.55
2022-11-24T14:38:02.560Z,13.93
2022-11-24T14:40:51.404Z,14.02
2022-11-24T14:43:32.854Z,13.25
2022-11-24T14:46:07.367Z,14.43
2022-11-24T14:48:38.405Z,14.80
2022-11-24T14:51:15.774Z,14.23
2022-11-24T14:53:43.321Z,13.88
2022-11-24T14:56:21.917Z,14.07
2022-11-24T14:58:48.700Z,13.30
2022-11-24T15:01:21.551Z,12.80
2022-11-24T15:04:32.537Z,12.85
2022-11-24T15:07:24.186Z,13.32
2022-11-24T15:09:52.379Z,13.48
2022-11-24T15:12:39.533Z,13.88
2022-11-24T15:15:20.536Z,13.77
2022-11-24T15:17:51.606Z,13.77
2022-11-24T15:20:30.766Z,12.88
2022-11-24T15:23:22.174Z,13.45
2022-11-24T15:25:50.450Z,13.68
2022-11-24T15:28:17.237Z,13.07
2022-11-24T15:30:44.068Z,13.50
2022-11-24T15:33:15.731Z,13.77
2022-11-24T15:35:42.665Z,14.70
2022-11-24T15:38:09.917Z,14.15
2022-11-24T15:40:40.324Z,13.63
2022-11-24T15:43:29.009Z,14.87
2022-11-24T15:45:55.966Z,14.27
2022-11-24T15:48:22.721Z,14.35
2022-11-24T15:50:49.833Z,13.75
2022-11-24T15:53:25.807Z,14.57
2022-11-24T15:55:52.760Z,14.63
2022-11-24T15:58:19.624Z,13.52
2022-11-24T16:00:46.643Z,14.07
2022-11-24T16:03:45.282Z,15.50
2022-11-24T16:06:00.247Z,14.25
2022-11-24T16:08:27.201Z,14.20
2022-11-24T16:10:54.064Z,14.70
2022-11-24T16:13:20.868Z,15.15
2022-11-24T16:15:47.705Z,14.75
2022-11-24T16:18:14.584Z,15.23
2022-11-24T16:20:41.368Z,15.40
2022-11-24T16:23:08.145Z,14.70
2022-11-24T16:25:35.023Z,14.25
2022-11-24T16:28:01.860Z,15.98
2022-11-24T16:30:28.744Z,15.10
2022-11-24T16:32:55.528Z,14.27
2022-11-24T16:35:22.402Z,14.05
2022-11-24T16:37:49.265Z,15.02
2022-11-24T16:40:16.303Z,14.70
2022-11-24T16:42:43.121Z,12.80
2022-11-24T16:45:12.062Z,14.20
2022-11-24T16:47:40.196Z,14.00
2022-11-24T16:50:08.549Z,13.32
2022-11-24T16:52:35.392Z,14.05
2022-11-24T16:55:02.339Z,14.00
2022-11-24T16:57:29.413Z,13.63
2022-11-24T16:59:56.218Z,13.52
2022-11-24T17:02:23.296Z,14.20
2022-11-24T17:04:52.528Z,14.63
2022-11-24T17:07:20.471Z,14.57
2022-11-24T17:09:47.387Z,12.50
2022-11-24T17:12:14.200Z,13.73
2022-11-24T17:14:41.024Z,13.45
2022-11-24T17:17:07.878Z,12.65
2022-11-24T17:19:34.671Z,14.10
2022-11-24T17:22:01.549Z,13.07
2022-11-24T17:24:28.465Z,13.30
2022-11-24T17:26:55.320Z,13.65
2022-11-24T17:29:22.175Z,12.45
2022-11-24T17:31:49.173Z,14.05
2022-11-24T17:34:16.123Z,12.93
2022-11-24T17:36:45.942Z,14.48
2022-11-24T17:39:12.786Z,13.45
2022-11-24T17:41:39.683Z,13.75
2022-11-24T17:44:08.708Z,12.90
2022-11-24T17:46:37.202Z,13.87
2022-11-24T17:49:04.133Z,13.63
2022-11-24T17:51:31.014Z,13.50
2022-11-24T17:53:57.940Z,13.43
2022-11-24T17:56:27.196Z,13.90
2022-11-24T17:58:55.292Z,13.93
2022-11-24T18:01:22.672Z,14.30
2022-11-24T18:03:53.429Z,14.25
2022-11-24T18:06:21.147Z,14.25
2022-11-24T18:08:48.446Z,14.13
2022-11-24T18:11:27.350Z,13.70
2022-11-24T18:14:00.944Z,13.77
2022-11-24T18:16:30.563Z,12.80
2022-11-24T18:19:12.084Z,13.68
2022-11-24T18:21:42.391Z,14.00
2022-11-24T18:24:09.877Z,14.17
2022-11-24T18:26:36.923Z,13.40
2022-11-24T18:29:04.303Z,14.27
2022-11-24T18:31:32.387Z,13.38
2022-11-24T18:33:59.434Z,14.32
2022-11-24T18:36:30.293Z,13.33
2022-11-24T18:38:59.986Z,12.38
2022-11-24T18:41:27.298Z,14.10
2022-11-24T18:43:54.077Z,12.75
2022-11-24T18:46:20.945Z,13.18
2022-11-24T18:48:47.844Z,14.07
2022-11-24T18:51:14.881Z,14.38
2022-11-24T18:53:42.481Z,14.15
2022-11-24T18:56:12.462Z,14.27
2022-11-24T18:58:39.262Z,12.98
2022-11-24T19:01:09.682Z,13.73
2022-11-24T19:03:41.336Z,13.50
2022-11-24T19:06:11.739Z,14.23
2022-11-24T19:08:38.930Z,13.80
2022-11-24T19:11:05.977Z,13.45
2022-11-24T19:13:32.906Z,14.57
2022-11-24T19:16:00.442Z,13.90
2022-11-24T19:18:29.326Z,14.65
2022-11-24T19:20:57.552Z,13.73
2022-11-24T19:23:24.408Z,13.85
2022-11-24T19:25:51.215Z,13.80
2022-11-24T19:28:18.105Z,13.75
2022-11-24T19:30:45.478Z,12.88
2022-11-24T19:33:12.285Z,14.02
2022-11-24T19:35:39.029Z,13.32
2022-11-24T19:38:05.865Z,13.48
2022-11-24T19:40:32.681Z,13.48
2022-11-24T19:42:59.615Z,12.63
2022-11-24T19:45:26.543Z,13.05
2022-11-24T19:47:53.319Z,12.60
2022-11-24T19:50:20.247Z,12.67
2022-11-24T19:52:48.001Z,13.27
2022-11-24T19:55:15.003Z,13.02
2022-11-24T19:57:41.851Z,14.00
2022-11-24T20:00:09.764Z,13.32
2022-11-24T20:02:36.653Z,12.47
2022-11-24T20:05:03.608Z,13.50
2022-11-24T20:07:30.521Z,12.52
2022-11-24T20:09:57.423Z,13.65
2022-11-24T20:12:24.347Z,12.27
2022-11-24T20:14:51.133Z,13.27
2022-11-24T20:17:18.002Z,12.63
2022-11-24T20:19:44.961Z,13.38
2022-11-24T20:22:11.789Z,13.95
2022-11-24T20:24:38.863Z,13.35
2022-11-24T20:27:05.724Z,12.73
2022-11-24T20:29:33.994Z,13.00
2022-11-24T20:32:00.890Z,13.60
2022-11-24T20:34:28.540Z,14.43
2022-11-24T20:36:55.502Z,14.50
2022-11-24T20:39:25.589Z,14.00
2022-11-24T20:41:52.810Z,14.30
2022-11-24T20:44:21.424Z,13.90
2022-11-24T20:46:48.486Z,14.02
2022-11-24T20:49:19.122Z,14.88
2022-11-24T20:51:47.928Z,13.87
2022-11-24T20:54:16.121Z,14.35
2022-11-24T20:56:43.593Z,14.90
2022-11-24T20:59:12.622Z,12.73
2022-11-24T21:01:41.073Z,13.13
2022-11-24T21:04:09.603Z,14.50
2022-11-24T21:06:36.640Z,14.35
2022-11-24T21:09:04.437Z,14.43
2022-11-24T21:11:31.640Z,15.32
2022-11-24T21:13:58.646Z,13.40
2022-11-24T21:16:29.617Z,14.00
2022-11-24T21:18:58.028Z,13.88
2022-11-24T21:21:25.549Z,13.27
2022-11-24T21:23:52.442Z,13.50
2022-11-24T21:26:19.467Z,14.30
2022-11-24T21:28:47.099Z,14.27
2022-11-24T21:31:18.629Z,14.68
2022-11-24T21:33:47.006Z,13.52
2022-11-24T21:36:14.827Z,14.23
2022-11-24T21:38:42.765Z,13.45
2022-11-24T21:41:10.411Z,14.80
2022-11-24T21:43:37.423Z,14.00
2022-11-24T21:46:06.031Z,13.27
2022-11-24T21:48:33.433Z,14.18
2022-11-24T21:51:01.319Z,13.95
2022-11-24T21:53:30.846Z,13.13
2022-11-24T21:55:58.557Z,13.70
2022-11-24T21:58:25.693Z,14.10
2022-11-24T22:00:52.774Z,13.80
2022-11-24T22:03:19.621Z,14.05
2022-11-24T22:05:56.488Z,14.23
2022-11-24T22:08:23.817Z,13.65
2022-11-24T22:10:50.658Z,13.00
2022-11-24T22:13:17.474Z,13.75
2022-11-24T22:15:44.350Z,14.13
2022-11-24T22:18:11.168Z,14.27
2022-11-24T22:20:38.308Z,13.98
2022-11-24T22:23:05.151Z,14.27
2022-11-24T22:25:31.888Z,13.55
2022-11-24T22:27:58.627Z,13.98
2022-11-24T22:30:25.329Z,13.63
2022-11-24T22:32:53.358Z,13.68
2022-11-24T22:35:20.099Z,13.68
2022-11-24T22:37:46.852Z,14.35
2022-11-24T22:40:13.718Z,14.13
2022-11-24T22:42:40.416Z,12.80
2022-11-24T22:45:07.948Z,14.27
2022-11-24T22:47:34.688Z,14.38
2022-11-24T22:50:01.455Z,13.07
2022-11-24T22:52:28.185Z,13.35
2022-11-24T22:54:54.933Z,12.20
2022-11-24T22:57:21.680Z,13.40
2022-11-24T22:59:48.468Z,12.95
2022-11-24T23:02:15.229Z,12.65
2022-11-24T23:04:42.003Z,12.85
2022-11-24T23:07:09.730Z,13.10
2022-11-24T23:09:36.512Z,12.27
2022-11-24T23:12:03.406Z,14.32
2022-11-24T23:14:30.218Z,13.40
2022-11-24T23:16:57.012Z,13.65
2022-11-24T23:19:23.798Z,12.80
2022-11-24T23:21:50.632Z,14.13
2022-11-24T23:24:17.497Z,13.18
2022-11-24T23:26:44.297Z,13.57
2022-11-24T23:29:11.682Z,14.18
2022-11-24T23:31:40.329Z,12.87
2022-11-24T23:34:07.342Z,14.05
2022-11-24T23:36:34.156Z,13.43
2022-11-24T23:39:08.764Z,13.48
2022-11-24T23:41:35.599Z,14.10
2022-11-24T23:44:02.590Z,13.67
2022-11-24T23:46:29.425Z,13.70
2022-11-24T23:48:56.369Z,13.93
2022-11-24T23:51:30.498Z,14.98
2022-11-24T23:56:41.854Z,13.67
2022-11-24T23:59:10.318Z,13.82
